sensor_id;sensor_type;location;lat;lon;timestamp;pressure;altitude;pressure_sealevel;temperature;humidity
45894;BME280;31603;51.148;16.932;2024-02-23T00:01:48;97804.28;;;9.29;100.00
45894;BME280;31603;51.148;16.932;2024-02-23T00:04:14;97807.19;;;9.45;100.00
45894;BME280;31603;51.148;16.932;2024-02-23T00:06:41;97803.63;;;9.44;100.00
45894;BME280;31603;51.148;16.932;2024-02-23T00:09:07;97800.91;;;9.49;100.00
45894;BME280;31603;51.148;16.932;2024-02-23T00:11:34;97792.09;;;9.47;100.00
45894;BME280;31603;51.148;16.932;2024-02-23T00:14:04;97801.81;;;9.65;100.00
45894;BME280;31603;51.148;16.932;2024-02-23T00:16:36;97801.53;;;9.61;100.00
45894;BME280;31603;51.148;16.932;2024-02-23T00:19:04;97804.94;;;9.74;100.00
45894;BME280;31603;51.148;16.932;2024-02-23T00:21:32;97805.75;;;9.74;100.00
45894;BME280;31603;51.148;16.932;2024-02-23T00:23:58;97796.50;;;9.85;100.00
45894;BME280;31603;51.148;16.932;2024-02-23T00:26:25;97803.69;;;9.92;100.00
45894;BME280;31603;51.148;16.932;2024-02-23T00:28:53;97815.50;;;9.97;100.00
45894;BME280;31603;51.148;16.932;2024-02-23T00:31:19;97815.78;;;10.01;100.00
45894;BME280;31603;51.148;16.932;2024-02-23T00:33:45;97812.50;;;9.99;100.00
45894;BME280;31603;51.148;16.932;2024-02-23T00:36:13;97817.19;;;10.03;100.00
45894;BME280;31603;51.148;16.932;2024-02-23T00:38:40;97829.81;;;10.04;100.00
45894;BME280;31603;51.148;16.932;2024-02-23T00:41:06;97811.50;;;10.15;100.00
45894;BME280;31603;51.148;16.932;2024-02-23T00:43:37;97818.31;;;10.07;100.00
45894;BME280;31603;51.148;16.932;2024-02-23T00:46:06;97800.94;;;9.92;100.00
45894;BME280;31603;51.148;16.932;2024-02-23T00:48:33;97803.47;;;10.03;100.00
45894;BME280;31603;51.148;16.932;2024-02-23T00:51:00;97800.44;;;10.05;100.00
45894;BME280;31603;51.148;16.932;2024-02-23T00:53:30;97812.53;;;10.09;100.00
45894;BME280;31603;51.148;16.932;2024-02-23T00:55:56;97802.72;;;10.13;100.00
45894;BME280;31603;51.148;16.932;2024-02-23T00:58:23;97808.22;;;10.23;100.00
45894;BME280;31603;51.148;16.932;2024-02-23T01:00:53;97806.59;;;10.22;100.00
45894;BME280;31603;51.148;16.932;2024-02-23T01:03:19;97804.72;;;10.28;100.00
45894;BME280;31603;51.148;16.932;2024-02-23T01:05:46;97804.19;;;10.31;100.00
45894;BME280;31603;51.148;16.932;2024-02-23T01:08:12;97808.03;;;10.30;100.00
45894;BME280;31603;51.148;16.932;2024-02-23T01:10:40;97801.91;;;10.23;100.00
45894;BME280;31603;51.148;16.932;2024-02-23T01:13:06;97796.50;;;10.28;100.00
45894;BME280;31603;51.148;16.932;2024-02-23T01:15:33;97790.91;;;10.18;100.00
45894;BME280;31603;51.148;16.932;2024-02-23T01:18:02;97800.78;;;10.19;100.00
45894;BME280;31603;51.148;16.932;2024-02-23T01:20:29;97793.13;;;10.21;100.00
45894;BME280;31603;51.148;16.932;2024-02-23T01:22:55;97793.59;;;10.07;100.00
45894;BME280;31603;51.148;16.932;2024-02-23T01:25:21;97794.72;;;10.11;100.00
45894;BME280;31603;51.148;16.932;2024-02-23T01:27:49;97787.59;;;10.16;100.00
45894;BME280;31603;51.148;16.932;2024-02-23T01:30:16;97781.66;;;9.86;100.00
45894;BME280;31603;51.148;16.932;2024-02-23T01:32:44;97778.06;;;9.81;100.00
45894;BME280;31603;51.148;16.932;2024-02-23T01:35:10;97770.44;;;9.93;100.00
45894;BME280;31603;51.148;16.932;2024-02-23T01:37:36;97755.03;;;9.87;100.00
45894;BME280;31603;51.148;16.932;2024-02-23T01:40:03;97767.72;;;9.93;100.00
45894;BME280;31603;51.148;16.932;2024-02-23T01:42:29;97761.97;;;10.00;100.00
45894;BME280;31603;51.148;16.932;2024-02-23T01:44:57;97760.56;;;9.92;100.00
45894;BME280;31603;51.148;16.932;2024-02-23T01:47:25;97743.81;;;9.94;100.00
45894;BME280;31603;51.148;16.932;2024-02-23T01:49:51;97748.84;;;10.07;100.00
45894;BME280;31603;51.148;16.932;2024-02-23T01:52:18;97749.06;;;10.00;100.00
45894;BME280;31603;51.148;16.932;2024-02-23T01:54:45;97755.69;;;10.04;100.00
45894;BME280;31603;51.148;16.932;2024-02-23T01:57:11;97748.03;;;10.06;100.00
45894;BME280;31603;51.148;16.932;2024-02-23T01:59:38;97759.00;;;10.06;100.00
45894;BME280;31603;51.148;16.932;2024-02-23T02:02:07;97751.28;;;10.03;100.00
45894;BME280;31603;51.148;16.932;2024-02-23T02:04:34;97743.63;;;10.10;100.00
45894;BME280;31603;51.148;16.932;2024-02-23T02:07:00;97771.34;;;10.04;100.00
45894;BME280;31603;51.148;16.932;2024-02-23T02:09:27;97787.50;;;10.00;100.00
45894;BME280;31603;51.148;16.932;2024-02-23T02:11:53;97787.25;;;10.02;100.00
45894;BME280;31603;51.148;16.932;2024-02-23T02:14:20;97785.31;;;9.97;100.00
45894;BME280;31603;51.148;16.932;2024-02-23T02:16:46;97781.13;;;9.89;100.00
45894;BME280;31603;51.148;16.932;2024-02-23T02:19:14;97786.63;;;9.84;100.00
45894;BME280;31603;51.148;16.932;2024-02-23T02:21:42;97785.22;;;9.82;100.00
45894;BME280;31603;51.148;16.932;2024-02-23T02:24:09;97794.84;;;9.84;100.00
45894;BME280;31603;51.148;16.932;2024-02-23T02:26:35;97792.66;;;9.86;100.00
45894;BME280;31603;51.148;16.932;2024-02-23T02:29:02;97805.03;;;9.94;100.00
45894;BME280;31603;51.148;16.932;2024-02-23T02:31:29;97801.47;;;9.88;100.00
45894;BME280;31603;51.148;16.932;2024-02-23T02:34:02;97800.34;;;9.84;100.00
45894;BME280;31603;51.148;16.932;2024-02-23T02:36:30;97800.03;;;9.81;100.00
45894;BME280;31603;51.148;16.932;2024-02-23T02:38:56;97794.53;;;9.81;100.00
45894;BME280;31603;51.148;16.932;2024-02-23T02:41:23;97803.94;;;9.90;100.00
45894;BME280;31603;51.148;16.932;2024-02-23T02:43:53;97800.59;;;9.83;100.00
45894;BME280;31603;51.148;16.932;2024-02-23T02:46:19;97803.84;;;9.80;100.00
45894;BME280;31603;51.148;16.932;2024-02-23T02:48:45;97796.19;;;9.82;100.00
45894;BME280;31603;51.148;16.932;2024-02-23T02:51:12;97801.69;;;9.82;100.00
45894;BME280;31603;51.148;16.932;2024-02-23T02:53:39;97802.50;;;9.82;100.00
45894;BME280;31603;51.148;16.932;2024-02-23T02:56:06;97813.72;;;9.76;100.00
45894;BME280;31603;51.148;16.932;2024-02-23T02:58:32;97827.50;;;9.86;100.00
45894;BME280;31603;51.148;16.932;2024-02-23T03:00:59;97810.47;;;9.84;100.00
45894;BME280;31603;51.148;16.932;2024-02-23T03:03:25;97815.97;;;9.84;100.00
45894;BME280;31603;51.148;16.932;2024-02-23T03:05:52;97819.81;;;9.83;100.00
45894;BME280;31603;51.148;16.932;2024-02-23T03:08:18;97818.38;;;9.75;100.00
45894;BME280;31603;51.148;16.932;2024-02-23T03:10:45;97814.38;;;9.93;100.00
45894;BME280;31603;51.148;16.932;2024-02-23T03:13:13;97812.63;;;9.77;100.00
45894;BME280;31603;51.148;16.932;2024-02-23T03:15:40;97820.63;;;9.83;100.00
45894;BME280;31603;51.148;16.932;2024-02-23T03:18:06;97832.44;;;9.84;100.00
45894;BME280;31603;51.148;16.932;2024-02-23T03:20:34;97840.19;;;9.92;100.00
45894;BME280;31603;51.148;16.932;2024-02-23T03:23:01;97847.56;;;9.86;100.00
45894;BME280;31603;51.148;16.932;2024-02-23T03:25:28;97853.66;;;9.94;100.00
45894;BME280;31603;51.148;16.932;2024-02-23T03:27:56;97870.47;;;10.02;100.00
45894;BME280;31603;51.148;16.932;2024-02-23T03:30:22;97881.47;;;10.07;100.00
45894;BME280;31603;51.148;16.932;2024-02-23T03:32:49;97883.13;;;10.08;100.00
45894;BME280;31603;51.148;16.932;2024-02-23T03:35:15;97890.28;;;10.09;100.00
45894;BME280;31603;51.148;16.932;2024-02-23T03:37:42;97890.44;;;10.30;100.00
45894;BME280;31603;51.148;16.932;2024-02-23T03:40:08;97891.09;;;10.42;100.00
45894;BME280;31603;51.148;16.932;2024-02-23T03:42:36;97892.44;;;10.45;100.00
45894;BME280;31603;51.148;16.932;2024-02-23T03:45:04;97911.38;;;10.36;100.00
45894;BME280;31603;51.148;16.932;2024-02-23T03:47:31;97913.53;;;10.34;100.00
45894;BME280;31603;51.148;16.932;2024-02-23T03:49:57;97915.25;;;10.45;100.00
45894;BME280;31603;51.148;16.932;2024-02-23T03:52:24;97920.13;;;10.33;100.00
45894;BME280;31603;51.148;16.932;2024-02-23T03:54:50;97920.13;;;10.28;100.00
45894;BME280;31603;51.148;16.932;2024-02-23T03:57:19;97915.84;;;10.10;100.00
45894;BME280;31603;51.148;16.932;2024-02-23T03:59:53;97932.06;;;10.17;100.00
45894;BME280;31603;51.148;16.932;2024-02-23T04:02:20;97938.50;;;9.95;100.00
45894;BME280;31603;51.148;16.932;2024-02-23T04:04:47;97943.47;;;9.98;100.00
45894;BME280;31603;51.148;16.932;2024-02-23T04:07:13;97945.13;;;9.99;100.00
45894;BME280;31603;51.148;16.932;2024-02-23T04:09:40;97942.16;;;9.74;100.00
45894;BME280;31603;51.148;16.932;2024-02-23T04:12:06;97948.59;;;9.57;100.00
45894;BME280;31603;51.148;16.932;2024-02-23T04:14:33;97956.16;;;9.45;100.00
45894;BME280;31603;51.148;16.932;2024-02-23T04:17:01;97947.97;;;9.50;100.00
45894;BME280;31603;51.148;16.932;2024-02-23T04:19:29;97942.78;;;9.54;100.00
45894;BME280;31603;51.148;16.932;2024-02-23T04:21:55;97941.56;;;9.67;100.00
45894;BME280;31603;51.148;16.932;2024-02-23T04:24:22;97942.00;;;9.85;100.00
45894;BME280;31603;51.148;16.932;2024-02-23T04:26:51;97939.41;;;10.06;100.00
45894;BME280;31603;51.148;16.932;2024-02-23T04:29:17;97944.75;;;10.23;100.00
45894;BME280;31603;51.148;16.932;2024-02-23T04:31:44;97940.09;;;10.23;100.00
45894;BME280;31603;51.148;16.932;2024-02-23T04:34:10;97942.50;;;10.15;100.00
45894;BME280;31603;51.148;16.932;2024-02-23T04:36:39;97945.31;;;10.25;100.00
45894;BME280;31603;51.148;16.932;2024-02-23T04:39:05;97946.25;;;10.03;100.00
45894;BME280;31603;51.148;16.932;2024-02-23T04:41:32;97957.25;;;10.03;100.00
45894;BME280;31603;51.148;16.932;2024-02-23T04:43:59;97964.28;;;9.94;100.00
45894;BME280;31603;51.148;16.932;2024-02-23T04:46:26;97958.19;;;9.87;100.00
45894;BME280;31603;51.148;16.932;2024-02-23T04:48:53;97960.28;;;9.75;100.00
45894;BME280;31603;51.148;16.932;2024-02-23T04:51:20;97962.25;;;9.79;100.00
45894;BME280;31603;51.148;16.932;2024-02-23T04:53:49;97963.59;;;9.77;100.00
45894;BME280;31603;51.148;16.932;2024-02-23T04:56:15;97971.06;;;9.81;100.00
45894;BME280;31603;51.148;16.932;2024-02-23T04:58:42;97986.38;;;9.77;100.00
45894;BME280;31603;51.148;16.932;2024-02-23T05:01:09;97988.34;;;9.82;100.00
45894;BME280;31603;51.148;16.932;2024-02-23T05:03:35;97991.06;;;9.77;100.00
45894;BME280;31603;51.148;16.932;2024-02-23T05:06:02;98013.53;;;9.74;100.00
45894;BME280;31603;51.148;16.932;2024-02-23T05:08:29;98016.28;;;9.74;100.00
45894;BME280;31603;51.148;16.932;2024-02-23T05:10:57;98013.16;;;9.65;100.00
45894;BME280;31603;51.148;16.932;2024-02-23T05:13:23;98016.41;;;9.89;100.00
45894;BME280;31603;51.148;16.932;2024-02-23T05:15:50;98008.53;;;9.98;100.00
45894;BME280;31603;51.148;16.932;2024-02-23T05:18:16;98022.03;;;9.99;100.00
45894;BME280;31603;51.148;16.932;2024-02-23T05:20:43;98026.09;;;9.97;100.00
45894;BME280;31603;51.148;16.932;2024-02-23T05:23:09;98033.00;;;9.99;100.00
45894;BME280;31603;51.148;16.932;2024-02-23T05:25:36;98036.41;;;10.11;100.00
45894;BME280;31603;51.148;16.932;2024-02-23T05:28:04;98046.25;;;10.07;100.00
45894;BME280;31603;51.148;16.932;2024-02-23T05:30:30;98050.66;;;10.08;100.00
45894;BME280;31603;51.148;16.932;2024-02-23T05:32:57;98056.09;;;10.03;100.00
45894;BME280;31603;51.148;16.932;2024-02-23T05:35:23;98054.75;;;10.06;100.00
45894;BME280;31603;51.148;16.932;2024-02-23T05:37:49;98064.13;;;10.10;100.00
45894;BME280;31603;51.148;16.932;2024-02-23T05:40:16;98067.81;;;10.21;100.00
45894;BME280;31603;51.148;16.932;2024-02-23T05:42:42;98070.28;;;10.22;100.00
45894;BME280;31603;51.148;16.932;2024-02-23T05:45:10;98083.88;;;10.34;100.00
45894;BME280;31603;51.148;16.932;2024-02-23T05:47:36;98081.09;;;10.29;100.00
45894;BME280;31603;51.148;16.932;2024-02-23T05:50:03;98090.47;;;10.33;100.00
45894;BME280;31603;51.148;16.932;2024-02-23T05:52:31;98092.91;;;10.29;100.00
45894;BME280;31603;51.148;16.932;2024-02-23T05:54:58;98094.31;;;10.32;100.00
45894;BME280;31603;51.148;16.932;2024-02-23T05:57:25;98097.00;;;10.27;100.00
45894;BME280;31603;51.148;16.932;2024-02-23T05:59:53;98108.06;;;10.32;100.00
45894;BME280;31603;51.148;16.932;2024-02-23T06:02:22;98108.00;;;10.27;100.00
45894;BME280;31603;51.148;16.932;2024-02-23T06:04:48;98111.56;;;10.27;100.00
45894;BME280;31603;51.148;16.932;2024-02-23T06:07:14;98115.66;;;10.25;100.00
45894;BME280;31603;51.148;16.932;2024-02-23T06:09:41;98122.22;;;10.24;100.00
45894;BME280;31603;51.148;16.932;2024-02-23T06:12:08;98136.81;;;10.24;100.00
45894;BME280;31603;51.148;16.932;2024-02-23T06:14:34;98131.22;;;10.19;100.00
45894;BME280;31603;51.148;16.932;2024-02-23T06:17:01;98144.09;;;10.13;100.00
45894;BME280;31603;51.148;16.932;2024-02-23T06:19:29;98138.13;;;10.22;100.00
45894;BME280;31603;51.148;16.932;2024-02-23T06:21:55;98151.78;;;10.17;100.00
45894;BME280;31603;51.148;16.932;2024-02-23T06:24:21;98154.53;;;10.17;100.00
45894;BME280;31603;51.148;16.932;2024-02-23T06:26:48;98160.66;;;10.24;100.00
45894;BME280;31603;51.148;16.932;2024-02-23T06:29:14;98163.09;;;10.20;100.00
45894;BME280;31603;51.148;16.932;2024-02-23T06:31:44;98169.97;;;10.18;100.00
45894;BME280;31603;51.148;16.932;2024-02-23T06:34:14;98164.03;;;10.26;100.00
45894;BME280;31603;51.148;16.932;2024-02-23T06:36:42;98170.50;;;10.20;100.00
45894;BME280;31603;51.148;16.932;2024-02-23T06:39:08;98178.34;;;10.28;100.00
45894;BME280;31603;51.148;16.932;2024-02-23T06:41:35;98183.50;;;10.24;100.00
45894;BME280;31603;51.148;16.932;2024-02-23T06:44:01;98180.81;;;10.29;100.00
45894;BME280;31603;51.148;16.932;2024-02-23T06:46:30;98194.59;;;10.34;100.00
45894;BME280;31603;51.148;16.932;2024-02-23T06:48:59;98202.03;;;10.34;100.00
45894;BME280;31603;51.148;16.932;2024-02-23T06:51:25;98205.81;;;10.28;100.00
45894;BME280;31603;51.148;16.932;2024-02-23T06:53:53;98209.94;;;10.30;100.00
45894;BME280;31603;51.148;16.932;2024-02-23T06:56:21;98200.66;;;10.31;100.00
45894;BME280;31603;51.148;16.932;2024-02-23T06:58:48;98206.38;;;10.30;100.00
45894;BME280;31603;51.148;16.932;2024-02-23T07:01:14;98205.81;;;10.28;100.00
45894;BME280;31603;51.148;16.932;2024-02-23T07:03:40;98208.03;;;10.31;100.00
45894;BME280;31603;51.148;16.932;2024-02-23T07:06:09;98211.47;;;10.21;100.00
45894;BME280;31603;51.148;16.932;2024-02-23T07:08:35;98217.63;;;10.28;100.00
45894;BME280;31603;51.148;16.932;2024-02-23T07:11:03;98221.34;;;10.39;100.00
45894;BME280;31603;51.148;16.932;2024-02-23T07:13:30;98226.81;;;10.39;100.00
45894;BME280;31603;51.148;16.932;2024-02-23T07:16:00;98225.94;;;10.33;100.00
45894;BME280;31603;51.148;16.932;2024-02-23T07:18:27;98222.94;;;10.35;100.00
45894;BME280;31603;51.148;16.932;2024-02-23T07:20:54;98219.59;;;10.33;100.00
45894;BME280;31603;51.148;16.932;2024-02-23T07:23:20;98226.88;;;10.44;100.00
45894;BME280;31603;51.148;16.932;2024-02-23T07:25:48;98231.34;;;10.50;100.00
45894;BME280;31603;51.148;16.932;2024-02-23T07:28:17;98233.19;;;10.45;100.00
45894;BME280;31603;51.148;16.932;2024-02-23T07:30:48;98231.19;;;10.35;100.00
45894;BME280;31603;51.148;16.932;2024-02-23T07:33:14;98236.13;;;10.38;100.00
45894;BME280;31603;51.148;16.932;2024-02-23T07:35:40;98244.00;;;10.51;100.00
45894;BME280;31603;51.148;16.932;2024-02-23T07:38:07;98249.38;;;10.41;100.00
45894;BME280;31603;51.148;16.932;2024-02-23T07:40:34;98256.63;;;10.52;100.00
45894;BME280;31603;51.148;16.932;2024-02-23T07:43:00;98250.81;;;10.49;100.00
45894;BME280;31603;51.148;16.932;2024-02-23T07:45:28;98254.41;;;10.49;100.00
45894;BME280;31603;51.148;16.932;2024-02-23T07:47:54;98260.59;;;10.62;100.00
45894;BME280;31603;51.148;16.932;2024-02-23T07:50:21;98260.09;;;10.65;100.00
45894;BME280;31603;51.148;16.932;2024-02-23T07:52:47;98269.63;;;10.57;100.00
45894;BME280;31603;51.148;16.932;2024-02-23T07:55:14;98269.56;;;10.52;100.00
45894;BME280;31603;51.148;16.932;2024-02-23T07:57:40;98276.50;;;10.59;100.00
45894;BME280;31603;51.148;16.932;2024-02-23T08:00:07;98285.16;;;10.46;100.00
45894;BME280;31603;51.148;16.932;2024-02-23T08:02:36;98279.69;;;10.46;100.00
45894;BME280;31603;51.148;16.932;2024-02-23T08:05:02;98285.03;;;10.58;100.00
45894;BME280;31603;51.148;16.932;2024-02-23T08:07:29;98283.47;;;10.67;100.00
45894;BME280;31603;51.148;16.932;2024-02-23T08:09:55;98288.09;;;10.62;100.00
45894;BME280;31603;51.148;16.932;2024-02-23T08:12:22;98301.88;;;10.67;100.00
45894;BME280;31603;51.148;16.932;2024-02-23T08:14:49;98296.38;;;10.67;100.00
45894;BME280;31603;51.148;16.932;2024-02-23T08:17:18;98309.69;;;10.75;100.00
45894;BME280;31603;51.148;16.932;2024-02-23T08:19:46;98321.72;;;10.69;100.00
45894;BME280;31603;51.148;16.932;2024-02-23T08:22:12;98332.56;;;10.58;100.00
45894;BME280;31603;51.148;16.932;2024-02-23T08:24:39;98334.09;;;10.49;100.00
45894;BME280;31603;51.148;16.932;2024-02-23T08:27:07;98340.25;;;10.56;100.00
45894;BME280;31603;51.148;16.932;2024-02-23T08:29:33;98343.44;;;10.48;100.00
45894;BME280;31603;51.148;16.932;2024-02-23T08:32:03;98310.22;;;10.11;100.00
45894;BME280;31603;51.148;16.932;2024-02-23T08:34:30;98334.94;;;10.28;100.00
45894;BME280;31603;51.148;16.932;2024-02-23T08:36:57;98333.16;;;10.39;100.00
45894;BME280;31603;51.148;16.932;2024-02-23T08:39:24;98333.84;;;10.29;94.66
45894;BME280;31603;51.148;16.932;2024-02-23T08:41:50;98331.94;;;10.29;90.10
45894;BME280;31603;51.148;16.932;2024-02-23T08:44:16;98340.22;;;10.34;87.67
45894;BME280;31603;51.148;16.932;2024-02-23T08:46:43;98351.63;;;10.43;85.20
45894;BME280;31603;51.148;16.932;2024-02-23T08:49:09;98354.88;;;10.40;83.07
45894;BME280;31603;51.148;16.932;2024-02-23T08:51:36;98365.28;;;10.38;83.55
45894;BME280;31603;51.148;16.932;2024-02-23T08:54:04;98377.81;;;10.29;81.28
45894;BME280;31603;51.148;16.932;2024-02-23T08:56:31;98369.84;;;10.49;81.04
45894;BME280;31603;51.148;16.932;2024-02-23T08:58:58;98381.78;;;10.38;80.88
45894;BME280;31603;51.148;16.932;2024-02-23T09:01:26;98386.06;;;10.29;81.03
45894;BME280;31603;51.148;16.932;2024-02-23T09:03:52;98390.88;;;10.39;81.49
45894;BME280;31603;51.148;16.932;2024-02-23T09:06:18;98392.75;;;10.38;80.18
45894;BME280;31603;51.148;16.932;2024-02-23T09:08:45;98396.44;;;10.44;79.48
45894;BME280;31603;51.148;16.932;2024-02-23T09:11:13;98397.41;;;10.54;79.59
45894;BME280;31603;51.148;16.932;2024-02-23T09:13:40;98400.31;;;10.48;78.28
45894;BME280;31603;51.148;16.932;2024-02-23T09:16:07;98399.44;;;10.42;77.02
45894;BME280;31603;51.148;16.932;2024-02-23T09:18:33;98401.63;;;10.62;77.96
45894;BME280;31603;51.148;16.932;2024-02-23T09:21:00;98399.31;;;10.76;77.26
45894;BME280;31603;51.148;16.932;2024-02-23T09:23:26;98400.84;;;10.67;74.67
45894;BME280;31603;51.148;16.932;2024-02-23T09:25:53;98402.00;;;10.71;75.18
45894;BME280;31603;51.148;16.932;2024-02-23T09:28:21;98408.06;;;10.51;74.06
45894;BME280;31603;51.148;16.932;2024-02-23T09:30:47;98415.41;;;10.45;74.32
45894;BME280;31603;51.148;16.932;2024-02-23T09:33:14;98425.03;;;10.65;75.42
45894;BME280;31603;51.148;16.932;2024-02-23T09:35:40;98415.88;;;10.81;74.33
45894;BME280;31603;51.148;16.932;2024-02-23T09:38:07;98423.75;;;10.94;74.14
45894;BME280;31603;51.148;16.932;2024-02-23T09:40:33;98429.56;;;10.76;73.60
45894;BME280;31603;51.148;16.932;2024-02-23T09:43:00;98430.72;;;10.80;74.22
45894;BME280;31603;51.148;16.932;2024-02-23T09:45:27;98431.88;;;10.84;73.96
45894;BME280;31603;51.148;16.932;2024-02-23T09:47:54;98439.63;;;10.87;74.41
45894;BME280;31603;51.148;16.932;2024-02-23T09:50:22;98434.22;;;10.53;73.66
45894;BME280;31603;51.148;16.932;2024-02-23T09:52:49;98448.69;;;10.66;76.03
45894;BME280;31603;51.148;16.932;2024-02-23T09:55:16;98449.31;;;10.73;76.12
45894;BME280;31603;51.148;16.932;2024-02-23T09:57:43;98448.22;;;10.74;74.05
45894;BME280;31603;51.148;16.932;2024-02-23T10:00:14;98456.63;;;10.84;74.40
45894;BME280;31603;51.148;16.932;2024-02-23T10:02:45;98447.91;;;10.92;72.12
45894;BME280;31603;51.148;16.932;2024-02-23T10:05:11;98453.63;;;11.07;71.81
45894;BME280;31603;51.148;16.932;2024-02-23T10:07:38;98452.69;;;10.97;71.12
45894;BME280;31603;51.148;16.932;2024-02-23T10:10:08;98465.84;;;11.17;72.21
45894;BME280;31603;51.148;16.932;2024-02-23T10:12:36;98469.28;;;10.85;71.20
45894;BME280;31603;51.148;16.932;2024-02-23T10:15:02;98463.53;;;11.08;70.52
45894;BME280;31603;51.148;16.932;2024-02-23T10:17:29;98482.97;;;11.02;70.09
45894;BME280;31603;51.148;16.932;2024-02-23T10:19:58;98486.19;;;11.16;70.12
45894;BME280;31603;51.148;16.932;2024-02-23T10:22:24;98485.91;;;10.95;69.54
45894;BME280;31603;51.148;16.932;2024-02-23T10:24:51;98481.88;;;11.03;68.90
45894;BME280;31603;51.148;16.932;2024-02-23T10:27:17;98486.50;;;11.19;68.54
45894;BME280;31603;51.148;16.932;2024-02-23T10:29:44;98497.09;;;11.32;68.19
45894;BME280;31603;51.148;16.932;2024-02-23T10:32:10;98495.88;;;11.45;68.35
45894;BME280;31603;51.148;16.932;2024-02-23T10:34:42;98481.22;;;11.40;67.47
45894;BME280;31603;51.148;16.932;2024-02-23T10:37:10;98479.38;;;11.45;68.69
45894;BME280;31603;51.148;16.932;2024-02-23T10:39:36;98481.94;;;11.52;66.24
45894;BME280;31603;51.148;16.932;2024-02-23T10:42:03;98478.03;;;11.75;65.35
45894;BME280;31603;51.148;16.932;2024-02-23T10:44:31;98483.25;;;11.98;65.17
45894;BME280;31603;51.148;16.932;2024-02-23T10:46:57;98490.84;;;11.86;65.23
45894;BME280;31603;51.148;16.932;2024-02-23T10:49:24;98484.59;;;11.96;63.65
45894;BME280;31603;51.148;16.932;2024-02-23T10:51:54;98486.56;;;12.00;62.69
45894;BME280;31603;51.148;16.932;2024-02-23T10:54:22;98489.28;;;11.95;63.67
45894;BME280;31603;51.148;16.932;2024-02-23T10:56:49;98497.78;;;11.67;63.40
45894;BME280;31603;51.148;16.932;2024-02-23T10:59:16;98500.13;;;11.31;64.08
45894;BME280;31603;51.148;16.932;2024-02-23T11:01:43;98501.22;;;11.30;65.34
45894;BME280;31603;51.148;16.932;2024-02-23T11:04:10;98508.41;;;11.58;64.51
45894;BME280;31603;51.148;16.932;2024-02-23T11:06:37;98499.66;;;11.39;64.79
45894;BME280;31603;51.148;16.932;2024-02-23T11:09:12;98504.66;;;11.42;64.81
45894;BME280;31603;51.148;16.932;2024-02-23T11:11:40;98492.38;;;12.04;63.42
45894;BME280;31603;51.148;16.932;2024-02-23T11:14:16;98499.94;;;12.19;61.54
45894;BME280;31603;51.148;16.932;2024-02-23T11:16:45;98487.56;;;11.89;62.02
45894;BME280;31603;51.148;16.932;2024-02-23T11:19:20;98485.00;;;12.10;61.56
45894;BME280;31603;51.148;16.932;2024-02-23T11:21:52;98480.00;;;12.07;61.54
45894;BME280;31603;51.148;16.932;2024-02-23T11:24:18;98481.16;;;12.16;61.35
45894;BME280;31603;51.148;16.932;2024-02-23T11:26:48;98471.72;;;11.79;61.95
45894;BME280;31603;51.148;16.932;2024-02-23T11:29:15;98465.03;;;11.97;62.01
45894;BME280;31603;51.148;16.932;2024-02-23T11:31:45;98467.97;;;11.59;62.44
45894;BME280;31603;51.148;16.932;2024-02-23T11:34:12;98466.88;;;11.87;61.76
45894;BME280;31603;51.148;16.932;2024-02-23T11:36:38;98454.81;;;12.30;60.47
45894;BME280;31603;51.148;16.932;2024-02-23T11:39:05;98456.59;;;11.82;61.06
45894;BME280;31603;51.148;16.932;2024-02-23T11:41:31;98442.75;;;11.72;61.39
45894;BME280;31603;51.148;16.932;2024-02-23T11:43:59;98455.88;;;11.65;62.31
45894;BME280;31603;51.148;16.932;2024-02-23T11:46:26;98470.03;;;11.73;61.60
45894;BME280;31603;51.148;16.932;2024-02-23T11:48:52;98480.22;;;11.73;61.51
45894;BME280;31603;51.148;16.932;2024-02-23T11:51:19;98475.69;;;11.62;62.44
45894;BME280;31603;51.148;16.932;2024-02-23T11:53:46;98477.06;;;11.86;62.30
45894;BME280;31603;51.148;16.932;2024-02-23T11:56:13;98491.84;;;11.53;63.15
45894;BME280;31603;51.148;16.932;2024-02-23T11:58:40;98497.53;;;11.46;64.12
45894;BME280;31603;51.148;16.932;2024-02-23T12:01:08;98503.50;;;11.38;64.90
45894;BME280;31603;51.148;16.932;2024-02-23T12:03:36;98509.53;;;11.35;65.04
45894;BME280;31603;51.148;16.932;2024-02-23T12:06:04;98519.72;;;11.13;66.20
45894;BME280;31603;51.148;16.932;2024-02-23T12:08:31;98526.06;;;10.96;67.86
45894;BME280;31603;51.148;16.932;2024-02-23T12:11:03;98524.59;;;10.89;68.88
45894;BME280;31603;51.148;16.932;2024-02-23T12:13:29;98530.88;;;10.67;69.70
45894;BME280;31603;51.148;16.932;2024-02-23T12:15:56;98537.31;;;10.73;71.30
45894;BME280;31603;51.148;16.932;2024-02-23T12:18:24;98537.47;;;10.83;71.89
45894;BME280;31603;51.148;16.932;2024-02-23T12:20:51;98544.97;;;10.71;72.76
45894;BME280;31603;51.148;16.932;2024-02-23T12:23:18;98545.63;;;10.78;72.59
45894;BME280;31603;51.148;16.932;2024-02-23T12:25:51;98547.31;;;10.79;73.65
45894;BME280;31603;51.148;16.932;2024-02-23T12:28:18;98548.94;;;10.97;73.51
45894;BME280;31603;51.148;16.932;2024-02-23T12:30:45;98547.16;;;11.07;74.26
45894;BME280;31603;51.148;16.932;2024-02-23T12:33:16;98547.03;;;10.97;75.30
45894;BME280;31603;51.148;16.932;2024-02-23T12:35:44;98553.50;;;11.08;77.17
45894;BME280;31603;51.148;16.932;2024-02-23T12:38:10;98558.53;;;10.94;78.31
45894;BME280;31603;51.148;16.932;2024-02-23T12:40:37;98560.78;;;10.97;78.99
45894;BME280;31603;51.148;16.932;2024-02-23T12:43:03;98564.69;;;11.01;80.42
45894;BME280;31603;51.148;16.932;2024-02-23T12:45:33;98563.91;;;11.06;80.64